This is the latest recevied weather packets stored in our database for station/object KO4LCK. If no packets are shown the sender has not sent any weather packets the latest 10 day(s).
| Time | Temp. | Humidity | Pressure | Rain* | Wind** | Luminosity | Snow |
|---|---|---|---|---|---|---|---|
| 1788198801 | 34.44° C | 50% | 1021.7 hPa | 0 mm | - | 819 W/m² | - |
| 1788198496 | 35° C | 49% | 1021.9 hPa | 0 mm | - | 836 W/m² | - |
| 1788198192 | 34.44° C | 49% | 1021.9 hPa | 0 mm | - | 855 W/m² | - |
| 1788197891 | 34.44° C | 52% | 1021.9 hPa | 0 mm | - | 824 W/m² | - |
| 1788197584 | 33.89° C | 51% | 1022 hPa | 0 mm | - | 818 W/m² | - |
| 1788197280 | 32.78° C | 54% | 1021.9 hPa | 0 mm | - | 856 W/m² | - |
| 1788196975 | 32.78° C | 53% | 1022.2 hPa | 0 mm | - | 853 W/m² | - |
| 1788196675 | 33.33° C | 55% | 1022 hPa | 0 mm | - | 216 W/m² | - |
| 1788196373 | 32.22° C | 58% | 1022.2 hPa | 0 mm | - | 862 W/m² | - |
| 1788196069 | 31.67° C | 59% | 1022.2 hPa | 0 mm | - | 885 W/m² | - |
| 1788195765 | 32.22° C | 58% | 1022.1 hPa | 0 mm | - | 171 W/m² | - |
| 1788195461 | 31.67° C | 57% | 1022.3 hPa | 0 mm | - | 827 W/m² | - |
| 1788195158 | 31.67° C | 58% | 1022.3 hPa | 0 mm | - | 188 W/m² | - |
| 1788194853 | 31.11° C | 61% | 1022.4 hPa | 0 mm | - | 214 W/m² | - |
| 1788194549 | 31.67° C | 59% | 1022.3 hPa | 0 mm | - | 146 W/m² | - |
| 1788194244 | 31.11° C | 60% | 1022.5 hPa | 0 mm | - | 177 W/m² | - |
| 1788193940 | 31.11° C | 60% | 1022.7 hPa | 0 mm | - | 215 W/m² | - |
| 1788193638 | 31.67° C | 59% | 1022.5 hPa | 0 mm | - | 183 W/m² | - |
| 1788193337 | 31.67° C | 60% | 1022.6 hPa | 0 mm | - | 159 W/m² | - |
| 1788193032 | 31.67° C | 60% | 1022.7 hPa | 0 mm | - | 220 W/m² | - |
| 1788192729 | 31.67° C | 61% | 1022.8 hPa | 0 mm | - | 194 W/m² | - |
| 1788192428 | 31.11° C | 60% | 1022.8 hPa | 0 mm | - | 589 W/m² | - |
| 1788192124 | 32.22° C | 60% | 1022.8 hPa | 0 mm | - | 161 W/m² | - |
| 1788191823 | 32.22° C | 60% | 1022.9 hPa | 0 mm | - | 209 W/m² | - |
| 1788191519 | 32.22° C | 60% | 1023.1 hPa | 0 mm | - | 756 W/m² | - |
* Rain latest hour (hover to see other rain measurements)
** Current wind speed in m/s (hover to see current wind gust speed)